• Join FlightAware (Why Join?)
  • Login
  • US Flag 
08:39PM EDT


 

Airport Tracker/Info


-or-


 

Live Flight TrackerFlight Track Log ✈ SWA1181 ✈ 07-Jun-2014 ✈ KMEM - KBWI

Flight Track Log - Related Links

Times and Time Zones

All times are in EDT time to prevent confusion due to time zone crossing. See the SWA1181 flight status page for this flight to view local times or setup timezone preferences in your user account.

Time Position Orientation Groundspeed Altitude Reporting Facility
EDT Latitude Longitude Course Direction KTS MPH feet Rate Location/Type
12:59PM 35.0667 -89.9833 22° Northeast 176 203 1,000  Level KMEM
01:00PM 35.1000 -89.9667 22° Northeast 199 229 2,500 1,860 Climbing KMEM
01:01PM 35.1333 -89.9000 59° Northeast 269 310 4,400 1,860 Climbing KMEM
01:02PM 35.1400 -89.8633 77° East 263 303 5,500 2,520 Climbing Memphis Center
01:03PM 35.1567 -89.7419 80° East 297 342 8,500 2,580 Climbing Memphis Center
01:04PM 35.1717 -89.6314 81° East 318 366 10,900 2,400 Climbing Memphis Center
01:05PM 35.1881 -89.5039 81° East 367 422 13,500 2,700 Climbing Memphis Center
01:06PM 35.2056 -89.3708 81° East 389 448 16,600 2,760 Climbing Memphis Center
01:07PM 35.2236 -89.2322 81° East 404 465 19,300 2,520 Climbing Memphis Center
01:08PM 35.2508 -89.0900 77° East 426 490 21,900 2,340 Climbing Memphis Center
01:09PM 35.3050 -88.9506 65° Northeast 449 517 24,100 2,460 Climbing Memphis Center
01:10PM 35.3703 -88.7803 65° Northeast 457 526 27,000 2,460 Climbing Memphis Center
01:11PM 35.4197 -88.6461 66° East 461 531 29,200 1,740 Climbing Memphis Center
01:12PM 35.4742 -88.5036 65° Northeast 461 531 30,600 1,260 Climbing Memphis Center
01:13PM 35.5297 -88.3544 65° Northeast 473 544 31,900 1,800 Climbing Memphis Center
01:14PM 35.5983 -88.1725 65° Northeast 485 558 34,400 1,800 Climbing Memphis Center
01:15PM 35.6456 -88.0472 65° Northeast 477 549 35,700 1,260 Climbing Memphis Center
01:16PM 35.7106 -87.8708 66° East 477 549 37,100 1,260 Climbing Memphis Center
01:17PM 35.7656 -87.7203 66° East 477 549 38,300 900 Climbing Memphis Center
01:18PM 35.8208 -87.5692 66° East 478 550 39,000 300 Climbing Memphis Center
01:19PM 35.8769 -87.4175 65° Northeast 479 551 39,000  Level Memphis Center
01:20PM 35.9311 -87.2656 66° East 479 551 39,000  Level Memphis Center
01:21PM 35.9850 -87.1142 66° East 479 551 39,000  Level Memphis Center
01:22PM 36.0394 -86.9628 66° East 479 551 39,000  Level Memphis Center
01:23PM 36.0992 -86.7872 67° East 479 551 39,000  Level Memphis Center
01:25PM 36.1519 -86.6358 67° East 479 551 39,000  Level Memphis Center
01:26PM 36.2025 -86.4817 68° East 482 555 39,000  Level Memphis Center
01:27PM 36.2517 -86.3264 69° East 482 555 39,000  Level Memphis Center
01:28PM 36.3019 -86.1706 68° East 483 556 39,000  Level Memphis Center
01:29PM 36.3522 -86.0147 68° East 483 556 39,000  Level Memphis Center
01:30PM 36.4033 -85.8583 68° East 484 557 39,000  Level Memphis Center
01:31PM 36.4553 -85.6964 68° East 484 557 39,000  Level Memphis Center
01:31PM 36.4933 -85.5714 69° East 483 556 39,000  Level Indianapolis Center
01:32PM 36.5411 -85.4142 69° East 483 556 39,000  Level Indianapolis Center
01:33PM 36.5908 -85.2592 68° East 483 556 39,000  Level Indianapolis Center
01:34PM 36.6378 -85.1050 69° East 479 551 39,000  Level Indianapolis Center
01:35PM 36.6842 -84.9542 69° East 472 543 39,000  Level Indianapolis Center
01:37PM 36.7306 -84.8022 69° East 469 540 39,000  Level Indianapolis Center
01:38PM 36.7769 -84.6497 69° East 469 540 39,000  Level Indianapolis Center
01:39PM 36.8247 -84.4944 69° East 468 539 39,000  Level Indianapolis Center
01:40PM 36.8692 -84.3419 70° East 468 539 39,000  Level Indianapolis Center
01:41PM 36.9219 -84.1656 69° East 467 537 39,000  Level Indianapolis Center
01:42PM 36.9678 -84.0117 70° East 467 537 39,000  Level Indianapolis Center
01:43PM 37.0136 -83.8572 70° East 468 539 39,000  Level Indianapolis Center
01:44PM 37.0594 -83.7036 69° East 468 539 39,000  Level Indianapolis Center
01:45PM 37.1044 -83.5481 70° East 469 540 39,000  Level Indianapolis Center
01:46PM 37.1503 -83.3936 70° East 469 540 39,000  Level Indianapolis Center
01:47PM 37.1947 -83.2392 70° East 469 540 39,000  Level Indianapolis Center
01:48PM 37.2394 -83.0858 70° East 467 537 39,000  Level Indianapolis Center
01:49PM 37.2828 -82.9328 70° East 464 534 39,000  Level Indianapolis Center
01:50PM 37.3258 -82.7797 70° East 464 534 39,000  Level Indianapolis Center
01:51PM 37.3683 -82.6289 70° East 460 529 39,000  Level Indianapolis Center
01:52PM 37.4186 -82.4528 70° East 459 528 39,000  Level Indianapolis Center
01:53PM 37.4600 -82.3014 71° East 459 528 39,000  Level Indianapolis Center
01:54PM 37.5019 -82.1494 71° East 459 528 39,000  Level Indianapolis Center
01:55PM 37.5433 -82.0000 71° East 457 526 39,000  Level Indianapolis Center
01:56PM 37.5844 -81.8494 71° East 456 525 39,000  Level Indianapolis Center
01:57PM 37.6261 -81.6994 71° East 455 524 39,000  Level Indianapolis Center
01:58PM 37.6661 -81.5492 71° East 454 522 39,000  Level Indianapolis Center
01:59PM 37.7050 -81.4064 71° East 451 519 39,000  Level Indianapolis Center
02:00PM 37.7525 -81.2297 71° East 449 517 39,000 -240 Level Indianapolis Center
02:01PM 37.7917 -81.0822 71° East 447 514 38,600 -720 Descending Indianapolis Center
02:02PM 37.8336 -80.9353 70° East 447 514 37,600 -960 Descending Indianapolis Center
02:03PM 37.8761 -80.7839 70° East 452 520 36,700 -960 Descending Indianapolis Center
02:04PM 37.9189 -80.6281 71° East 453 521 35,700 -840 Descending Indianapolis Center
02:05PM 37.9597 -80.4833 70° East 453 521 35,000 -780 Descending Indianapolis Center
02:06PM 38.0003 -80.3319 71° East 453 521 34,200 -900 Descending Indianapolis Center
02:07PM 38.0403 -80.1808 71° East 453 521 33,200 -1,080 Descending Indianapolis Center
02:08PM 38.0897 -80.0044 70° East 447 514 32,000 -1,080 Descending Indianapolis Center
02:09PM 38.1281 -79.8581 72° East 442 509 31,000 -1,020 Descending Indianapolis Center
02:10PM 38.1653 -79.7172 71° East 429 494 30,000 -1,020 Descending Indianapolis Center
02:11PM 38.2031 -79.5736 71° East 428 493 29,000 -540 Descending Indianapolis Center
02:12PM 38.2417 -79.4319 71° East 427 491 29,000  Level Indianapolis Center
02:14PM 38.2908 -79.2400 72° East 422 486 29,000 -60 Level Washington Center
02:15PM 38.3286 -79.0961 71° East 417 480 28,900 -720 Descending Washington Center
02:16PM 38.3681 -78.9550 70° East 422 486 27,600 -960 Descending Washington Center
02:17PM 38.3986 -78.8264 73° East 422 486 27,000 -300 Descending Washington Center
02:18PM 38.4358 -78.6850 71° East 422 486 27,000  Level Washington Center
02:19PM 38.4706 -78.5458 72° East 422 486 27,000 -120 Level Washington Center
02:20PM 38.5053 -78.4067 72° East 422 486 26,800 -1,140 Descending Washington Center
02:21PM 38.5417 -78.2700 71° East 417 480 24,800 -1,920 Descending Washington Center
02:22PM 38.5739 -78.1358 73° East 404 465 22,900 -1,920 Descending Washington Center
02:23PM 38.6056 -78.0067 73° East 391 450 21,000 -1,980 Descending Washington Center
02:24PM 38.6353 -77.8828 73° East 378 435 19,100 -1,020 Descending Washington Center
02:25PM 38.6481 -77.7500 83° East 365 420 19,000 -60 Descending Washington Center
02:26PM 38.6564 -77.6256 85° East 365 420 19,000 -840 Level Washington Center
02:27PM 38.6631 -77.4847 86° East 365 420 17,400 -1,440 Descending Washington Center
02:28PM 38.6667 -77.3500 88° East 341 392 16,000 -1,200 Descending Potomac TRACON
02:29PM 38.6833 -77.2167 81° East 319 367 14,700 -1,440 Descending Potomac TRACON
02:30PM 38.6833 -77.1000 90° East 320 368 13,100 -1,440 Descending Potomac TRACON
02:31PM 38.7000 -76.9833 80° East 310 357 11,900 -1,380 Descending Potomac TRACON
02:32PM 38.7000 -76.8833 90° East 309 356 10,500 -1,260 Descending Potomac TRACON
02:33PM 38.7000 -76.7833 90° East 282 325 9,600 -900 Descending Potomac TRACON
02:34PM 38.7333 -76.7000 63° Northeast 266 306 8,800 -1,080 Descending Potomac TRACON
02:35PM 38.7667 -76.6167 63° Northeast 258 297 7,500 -1,380 Descending Potomac TRACON
02:36PM 38.8000 -76.5333 63° Northeast 257 296 6,100 -1,200 Descending Potomac TRACON
02:37PM 38.8667 -76.5500 349° North 250 288 5,100 -900 Descending Potomac TRACON
02:38PM 38.9333 -76.5667 349° North 254 292 4,400 -840 Descending Potomac TRACON
02:39PM 39.0000 -76.5333 21° North 258 297 3,500 -1,200 Descending Potomac TRACON
02:40PM 39.0667 -76.5000 21° North 261 300 2,100 -780 Descending Potomac TRACON
02:41PM 39.1333 -76.5167 349° North 214 246 2,000 -240 Descending Potomac TRACON
02:42PM 39.1667 -76.5500 322° Northwest 156 180 1,700 -600 Descending Potomac TRACON
02:43PM 39.1667 -76.6000 270° West 149 171 900 -840 Descending Potomac TRACON
02:45PM 39.1667 -76.6667 339° North  Level FlightAware Approximate
02:52PM 39.1754 -76.6683 339° North  Level Estimated
02:53PM 39.1754 -76.6683 339° North  Level Estimated